createdAt,value
2022-12-15T00:00:32.199Z,88.15
2022-12-15T00:01:32.208Z,88.01
2022-12-15T00:02:32.391Z,88.01
2022-12-15T00:03:32.824Z,87.90
2022-12-15T00:04:32.362Z,87.80
2022-12-15T00:05:32.456Z,87.80
2022-12-15T00:06:32.537Z,87.80
2022-12-15T00:07:32.556Z,87.70
2022-12-15T00:08:32.645Z,87.70
2022-12-15T00:09:32.736Z,87.59
2022-12-15T00:10:32.922Z,87.55
2022-12-15T00:11:32.924Z,87.45
2022-12-15T00:12:33.005Z,87.45
2022-12-15T00:13:33.444Z,87.35
2022-12-15T00:14:33.200Z,87.35
2022-12-15T00:15:33.314Z,87.35
2022-12-15T00:16:33.397Z,87.35
2022-12-15T00:17:33.460Z,87.24
2022-12-15T00:18:33.558Z,87.24
2022-12-15T00:22:31.878Z,87.49
2022-12-15T00:23:33.149Z,87.59
2022-12-15T00:24:32.759Z,87.80
2022-12-15T00:25:32.832Z,87.80
2022-12-15T00:26:41.182Z,87.80
2022-12-15T00:27:33.067Z,87.70
2022-12-15T00:28:33.083Z,87.70
2022-12-15T00:29:33.116Z,87.59
2022-12-15T00:30:33.243Z,87.49
2022-12-15T01:01:05.948Z,89.94
2022-12-15T01:02:06.866Z,89.94
2022-12-15T01:03:07.015Z,89.94
2022-12-15T01:04:06.875Z,89.79
2022-12-15T01:05:06.937Z,89.69
2022-12-15T01:06:07.048Z,89.58
2022-12-15T01:07:07.124Z,89.37
2022-12-15T01:08:07.226Z,89.27
2022-12-15T01:09:07.367Z,89.03
2022-12-15T01:10:07.342Z,88.92
2022-12-15T01:11:07.420Z,88.82
2022-12-15T01:12:07.551Z,88.71
2022-12-15T01:13:07.624Z,88.61
2022-12-15T01:14:07.703Z,88.46
2022-12-15T01:15:07.838Z,88.26
2022-12-15T01:16:07.898Z,88.15
2022-12-15T01:17:07.966Z,88.05
2022-12-15T01:18:08.014Z,88.05
2022-12-15T01:19:08.110Z,87.95
2022-12-15T01:20:08.175Z,87.95
2022-12-15T01:21:08.254Z,87.95
2022-12-15T01:22:08.340Z,87.84
2022-12-15T01:23:08.507Z,87.74
2022-12-15T01:24:08.583Z,87.74
2022-12-15T01:25:08.711Z,87.70
2022-12-15T01:26:08.743Z,87.59
2022-12-15T01:27:08.832Z,87.59
2022-12-15T01:28:08.936Z,87.59
2022-12-15T01:29:08.954Z,87.49
2022-12-15T01:30:09.055Z,87.38
2022-12-15T01:31:09.216Z,87.38
2022-12-15T01:32:09.190Z,87.28
2022-12-15T01:33:09.334Z,87.28
2022-12-15T01:34:09.335Z,87.28
2022-12-15T01:35:09.404Z,87.18
2022-12-15T01:36:20.885Z,87.18
2022-12-15T01:37:09.747Z,87.07
2022-12-15T01:38:09.728Z,87.18
2022-12-15T01:39:09.737Z,87.18
2022-12-15T01:40:09.939Z,87.28
2022-12-15T01:41:09.907Z,87.18
2022-12-15T01:42:09.960Z,87.18
2022-12-15T01:43:10.076Z,87.18
2022-12-15T01:44:10.214Z,87.07
2022-12-15T01:45:10.279Z,87.07
2022-12-15T01:46:10.455Z,86.97
2022-12-15T01:54:45.037Z,87.88
2022-12-15T01:55:45.928Z,87.99
2022-12-15T01:58:08.619Z,88.09
2022-12-15T01:59:09.785Z,88.20
2022-12-15T02:00:09.592Z,88.30
2022-12-15T02:01:09.749Z,88.30
2022-12-15T02:02:09.942Z,88.30
2022-12-15T02:03:09.942Z,88.20
2022-12-15T02:04:09.950Z,88.05
2022-12-15T02:05:10.047Z,87.84
2022-12-15T02:06:10.188Z,87.74
2022-12-15T02:07:10.229Z,87.74
2022-12-15T02:08:10.378Z,87.63
2022-12-15T02:09:10.374Z,87.63
2022-12-15T02:10:10.575Z,87.63
2022-12-15T02:11:10.518Z,87.53
2022-12-15T02:12:10.690Z,87.43
2022-12-15T02:13:10.707Z,87.43
2022-12-15T02:14:10.796Z,87.43
2022-12-15T02:15:10.952Z,87.32
2022-12-15T02:16:11.073Z,87.32
2022-12-15T02:17:23.798Z,87.32
2022-12-15T02:18:11.269Z,87.18
2022-12-15T02:19:11.285Z,87.18
2022-12-15T02:20:11.321Z,87.18
2022-12-15T02:21:11.458Z,87.07
2022-12-15T02:24:12.329Z,87.18
2022-12-15T02:26:12.590Z,87.18
2022-12-15T02:27:13.444Z,87.18
2022-12-15T02:28:13.391Z,87.22
2022-12-15T02:29:13.397Z,87.12
2022-12-15T02:30:13.522Z,87.12
2022-12-15T02:31:32.327Z,87.07
2022-12-15T02:32:13.705Z,87.07
2022-12-15T02:33:13.775Z,87.07
2022-12-15T02:34:13.878Z,87.07
2022-12-15T02:35:13.945Z,86.97
2022-12-15T02:36:14.020Z,86.87
2022-12-15T02:37:14.084Z,86.87
2022-12-15T02:38:14.226Z,86.76
2022-12-15T02:39:14.350Z,86.87
2022-12-15T02:40:14.241Z,86.76
2022-12-15T02:41:14.295Z,86.76
2022-12-15T02:42:14.440Z,86.76
2022-12-15T02:43:14.491Z,86.66
2022-12-15T02:44:14.570Z,86.66
2022-12-15T02:45:14.617Z,86.66
2022-12-15T02:46:14.744Z,86.66
2022-12-15T02:47:14.752Z,86.66
2022-12-15T02:48:14.872Z,86.55
2022-12-15T02:49:14.970Z,86.55
2022-12-15T02:50:15.076Z,86.55
2022-12-15T02:51:15.189Z,86.45
2022-12-15T02:52:15.247Z,86.35
2022-12-15T02:53:15.374Z,86.25
2022-12-15T02:54:15.528Z,86.25
2022-12-15T03:13:02.999Z,88.44
2022-12-15T03:14:03.854Z,88.44
2022-12-15T03:22:13.680Z,89.00
2022-12-15T03:23:13.945Z,88.90
2022-12-15T03:38:32.467Z,89.21
2022-12-15T03:51:52.116Z,89.56
2022-12-15T03:59:50.257Z,89.46
2022-12-15T04:00:51.577Z,89.36
2022-12-15T04:20:57.416Z,89.77
2022-12-15T04:43:35.619Z,89.67
2022-12-15T04:44:22.910Z,89.56
2022-12-15T04:45:25.115Z,89.46
2022-12-15T04:46:23.199Z,89.46
2022-12-15T04:48:51.686Z,89.11
2022-12-15T04:53:40.159Z,89.25
2022-12-15T04:54:40.723Z,89.15
2022-12-15T05:04:35.585Z,89.15
2022-12-15T05:05:36.618Z,89.15
2022-12-15T05:29:48.002Z,89.29
2022-12-15T05:30:49.200Z,89.29
2022-12-15T06:08:57.300Z,89.29
2022-12-15T06:24:23.912Z,89.39
2022-12-15T06:26:49.541Z,89.29
2022-12-15T06:46:47.495Z,89.43
2022-12-15T06:49:21.534Z,89.43
2022-12-15T07:01:15.980Z,89.43
2022-12-15T07:06:24.691Z,89.33
